Time;durP1;ratioP1;P1;durP2;ratioP2;P2;SDS_P1;SDS_P2;PMS_P1;PMS_P2;Temp;Humidity;BMP_temperature;BMP_pressure;BME280_temperature;BME280_humidity;BME280_pressure;Samples;Min_cycle;Max_cycle;Signal;HPM_P1;HPM_P2
2021/04/22 00:01:56;;;;;;;3.13;0.30;;;23.30;36.50;;;;;;5039041;28;20025;-47
2021/04/22 00:04:21;;;;;;;1.60;0.40;;;23.30;36.50;;;;;;5049227;28;20025;-45
2021/04/22 00:06:50;;;;;;;1.52;0.13;;;23.30;36.50;;;;;;5047616;28;20588;-46
2021/04/22 00:09:16;;;;;;;2.90;0.30;;;23.30;36.50;;;;;;5050031;28;20494;-46
2021/04/22 00:11:42;;;;;;;1.02;0.10;;;23.30;36.50;;;;;;5048135;28;20872;-47
2021/04/22 00:14:08;;;;;;;1.15;0.10;;;23.20;36.40;;;;;;5056550;28;20112;-45
2021/04/22 00:16:34;;;;;;;1.67;0.20;;;23.30;36.50;;;;;;5051021;28;20124;-44
2021/04/22 00:19:00;;;;;;;2.03;0.20;;;23.30;36.50;;;;;;5048842;28;20482;-48
2021/04/22 00:21:25;;;;;;;1.20;0.20;;;23.20;36.50;;;;;;5064366;28;20029;-46
2021/04/22 00:23:51;;;;;;;1.10;0.22;;;23.20;36.90;;;;;;5048938;28;20075;-47
2021/04/22 00:26:17;;;;;;;1.83;0.30;;;23.20;36.40;;;;;;5048794;28;20028;-48
2021/04/22 00:28:42;;;;;;;1.67;0.30;;;23.20;36.40;;;;;;5049336;28;20042;-45
2021/04/22 00:31:08;;;;;;;4.72;0.20;;;23.20;36.40;;;;;;5051267;28;20505;-48
2021/04/22 00:33:34;;;;;;;3.08;0.35;;;23.20;36.50;;;;;;5045630;28;20035;-46
2021/04/22 00:35:59;;;;;;;1.25;0.25;;;23.10;36.40;;;;;;5061725;28;20405;-48
2021/04/22 00:38:25;;;;;;;1.27;0.30;;;23.20;36.40;;;;;;5057991;28;20039;-50
2021/04/22 00:40:50;;;;;;;3.15;0.50;;;23.10;36.50;;;;;;5054098;28;20057;-47
2021/04/22 00:43:18;;;;;;;2.33;0.40;;;23.10;36.40;;;;;;5060730;28;20053;-54
2021/04/22 00:45:45;;;;;;;1.40;0.15;;;23.10;36.50;;;;;;5055083;28;20039;-47
2021/04/22 00:48:13;;;;;;;1.90;0.40;;;23.10;36.40;;;;;;5051892;28;20431;-46
2021/04/22 00:50:40;;;;;;;1.90;0.20;;;23.10;36.50;;;;;;5048700;28;20485;-47
2021/04/22 00:53:07;;;;;;;0.63;0.10;;;23.10;36.50;;;;;;5053539;28;20555;-48
2021/04/22 00:55:33;;;;;;;1.60;0.38;;;23.10;36.50;;;;;;5050659;28;20025;-48
2021/04/22 00:58:00;;;;;;;2.30;0.30;;;23.10;36.40;;;;;;5032625;28;20025;-46
2021/04/22 01:00:38;;;;;;;3.88;0.30;;;23.00;36.40;;;;;;5049524;28;20066;-48
2021/04/22 01:03:05;;;;;;;1.48;0.20;;;23.00;36.40;;;;;;5044094;28;20025;-46
2021/04/22 01:05:38;;;;;;;1.33;0.22;;;23.00;36.50;;;;;;5061029;28;20074;-48
2021/04/22 01:08:03;;;;;;;1.75;0.20;;;23.00;36.40;;;;;;5044125;28;20028;-49
2021/04/22 01:10:29;;;;;;;1.60;0.30;;;23.00;36.40;;;;;;5052183;28;20485;-47
2021/04/22 01:12:56;;;;;;;2.75;0.20;;;23.00;36.40;;;;;;5047538;28;20017;-51
2021/04/22 01:15:24;;;;;;;2.00;0.20;;;23.00;36.40;;;;;;5037551;28;20025;-47
2021/04/22 01:17:51;;;;;;;0.93;0.20;;;23.00;36.50;;;;;;5050376;28;20017;-45
2021/04/22 01:20:23;;;;;;;0.63;0.10;;;23.00;36.50;;;;;;5050305;28;20429;-49
2021/04/22 01:22:50;;;;;;;0.63;0.32;;;22.90;36.40;;;;;;5052906;28;20134;-47
2021/04/22 01:25:21;;;;;;;1.00;0.20;;;23.00;36.40;;;;;;5031844;28;20049;-46
2021/04/22 01:27:46;;;;;;;3.25;0.28;;;22.90;36.40;;;;;;5049027;28;20025;-47
2021/04/22 01:30:22;;;;;;;3.78;0.50;;;22.90;36.40;;;;;;5047759;28;20498;-48
2021/04/22 01:32:48;;;;;;;2.33;0.20;;;22.90;36.40;;;;;;5051429;28;20033;-45
2021/04/22 01:35:19;;;;;;;0.90;0.20;;;22.90;36.40;;;;;;5049643;28;20033;-45
2021/04/22 01:37:46;;;;;;;0.60;0.20;;;22.90;36.40;;;;;;5051297;28;20394;-46
2021/04/22 01:40:13;;;;;;;2.70;0.20;;;22.90;36.40;;;;;;5047614;28;20041;-47
2021/04/22 01:42:39;;;;;;;1.67;0.20;;;22.90;36.90;;;;;;5047441;28;20048;-45
2021/04/22 01:45:06;;;;;;;1.55;0.10;;;22.90;36.40;;;;;;5049382;28;20063;-49
2021/04/22 01:47:31;;;;;;;0.73;0.10;;;22.80;36.30;;;;;;5042832;28;20044;-49
2021/04/22 01:49:57;;;;;;;1.50;0.20;;;22.80;36.30;;;;;;5049021;28;20025;-46
2021/04/22 01:52:22;;;;;;;2.08;0.25;;;22.80;36.40;;;;;;5047350;28;20028;-50
2021/04/22 01:54:48;;;;;;;0.77;0.10;;;22.80;36.30;;;;;;5047834;28;20037;-47
2021/04/22 01:57:14;;;;;;;1.00;0.10;;;22.80;36.30;;;;;;5042120;28;20037;-47
2021/04/22 01:59:39;;;;;;;1.48;0.20;;;22.80;36.30;;;;;;5047389;28;20155;-47
2021/04/22 02:02:05;;;;;;;1.23;0.30;;;22.80;36.40;;;;;;5050381;28;20027;-48
2021/04/22 02:04:31;;;;;;;2.10;0.20;;;22.80;36.40;;;;;;5055919;28;20033;-47
2021/04/22 02:06:56;;;;;;;1.10;0.20;;;22.80;36.30;;;;;;5048162;28;20017;-45
2021/04/22 02:09:22;;;;;;;1.15;0.30;;;22.80;36.30;;;;;;5050989;28;20208;-45
2021/04/22 02:11:48;;;;;;;2.03;0.30;;;22.80;36.30;;;;;;5048775;28;20136;-46
2021/04/22 02:14:13;;;;;;;1.90;0.10;;;22.80;36.30;;;;;;5049173;28;20108;-46
2021/04/22 02:16:39;;;;;;;1.00;0.22;;;22.70;36.30;;;;;;5059916;28;20070;-48
2021/04/22 02:19:05;;;;;;;1.73;0.20;;;22.70;36.20;;;;;;5047249;28;20028;-47
2021/04/22 02:21:32;;;;;;;0.98;0.20;;;22.70;36.20;;;;;;5058239;28;20039;-45
2021/04/22 02:23:57;;;;;;;1.27;0.40;;;22.70;36.20;;;;;;5055208;28;20095;-44
2021/04/22 02:26:23;;;;;;;2.45;0.30;;;22.70;36.30;;;;;;5046780;28;20121;-48
2021/04/22 02:28:48;;;;;;;0.70;0.20;;;22.70;36.20;;;;;;5056857;28;20061;-48
2021/04/22 02:31:14;;;;;;;0.77;0.10;;;22.70;36.70;;;;;;5048663;28;20032;-48
2021/04/22 02:33:40;;;;;;;1.33;0.20;;;22.70;36.20;;;;;;5055615;28;20040;-48
2021/04/22 02:36:06;;;;;;;1.67;0.40;;;22.70;36.20;;;;;;5050642;28;20032;-47
2021/04/22 02:38:32;;;;;;;1.17;0.20;;;22.70;36.20;;;;;;5060949;28;20076;-49
2021/04/22 02:40:58;;;;;;;2.67;0.38;;;22.70;36.20;;;;;;5046126;28;20049;-45
2021/04/22 02:43:23;;;;;;;1.02;0.13;;;22.70;36.20;;;;;;5045514;28;20082;-47
2021/04/22 02:45:52;;;;;;;3.28;0.20;;;22.60;36.20;;;;;;5060138;28;20032;-50
2021/04/22 02:48:18;;;;;;;1.73;0.25;;;22.60;36.20;;;;;;5070044;28;20539;-49
2021/04/22 02:50:50;;;;;;;0.90;0.20;;;22.60;36.10;;;;;;5047464;28;20040;-47
2021/04/22 02:53:16;;;;;;;0.82;0.20;;;22.60;36.20;;;;;;5051984;28;20028;-48
2021/04/22 02:55:45;;;;;;;1.67;0.32;;;22.60;36.20;;;;;;5049616;28;20480;-47
2021/04/22 02:58:13;;;;;;;1.38;0.50;;;22.60;36.20;;;;;;5056413;28;20025;-49
2021/04/22 03:00:40;;;;;;;2.45;0.52;;;22.60;36.10;;;;;;5050173;28;20026;-48
2021/04/22 03:03:06;;;;;;;2.08;0.20;;;22.60;36.20;;;;;;5056356;28;20035;-48
2021/04/22 03:05:32;;;;;;;1.13;0.22;;;22.60;36.20;;;;;;5041364;28;20391;-47
2021/04/22 03:07:58;;;;;;;0.80;0.10;;;22.60;36.20;;;;;;5049035;28;20033;-46
2021/04/22 03:10:25;;;;;;;1.50;0.20;;;22.60;36.20;;;;;;5048909;28;20029;-47
2021/04/22 03:12:51;;;;;;;2.03;0.40;;;22.50;36.00;;;;;;5047936;28;20029;-46
2021/04/22 03:15:18;;;;;;;1.92;0.40;;;22.50;36.10;;;;;;5052435;28;20029;-48
2021/04/22 03:17:44;;;;;;;1.52;0.20;;;22.50;36.10;;;;;;5048476;28;20049;-48
2021/04/22 03:20:11;;;;;;;1.25;0.20;;;22.50;36.10;;;;;;5050641;28;20056;-47
2021/04/22 03:22:38;;;;;;;0.70;0.10;;;22.50;36.10;;;;;;5058044;28;20037;-48
2021/04/22 03:25:05;;;;;;;1.65;0.35;;;22.50;36.10;;;;;;5055681;28;20036;-48
2021/04/22 03:27:31;;;;;;;2.08;0.20;;;22.50;36.00;;;;;;5047882;28;20025;-47
2021/04/22 03:29:57;;;;;;;2.40;0.28;;;22.50;36.10;;;;;;5047922;28;20036;-47
2021/04/22 03:32:23;;;;;;;2.35;0.10;;;22.50;36.00;;;;;;5047444;28;20043;-47
2021/04/22 03:34:49;;;;;;;2.20;0.45;;;22.50;36.00;;;;;;5033208;28;20494;-47
2021/04/22 03:37:15;;;;;;;1.42;0.25;;;22.50;36.10;;;;;;5043994;28;20028;-46
2021/04/22 03:39:40;;;;;;;2.42;0.20;;;22.50;36.10;;;;;;5047111;28;20037;-48
2021/04/22 03:42:06;;;;;;;2.33;0.25;;;22.50;36.10;;;;;;5049851;28;20025;-46
2021/04/22 03:44:32;;;;;;;1.33;0.20;;;22.50;36.00;;;;;;5048942;28;20033;-45
2021/04/22 03:46:57;;;;;;;4.22;0.20;;;22.40;36.00;;;;;;5049268;28;20036;-47
2021/04/22 03:49:23;;;;;;;2.08;0.50;;;22.40;36.00;;;;;;5052029;28;20024;-50
2021/04/22 03:51:48;;;;;;;2.35;0.20;;;22.40;36.00;;;;;;5048511;28;20036;-47
2021/04/22 03:54:14;;;;;;;2.40;0.43;;;22.40;36.00;;;;;;5052317;28;20545;-48
2021/04/22 03:56:40;;;;;;;1.77;0.45;;;22.40;36.10;;;;;;5047391;28;20091;-48
2021/04/22 03:59:05;;;;;;;2.13;0.30;;;22.40;36.00;;;;;;5057152;28;20032;-46
2021/04/22 04:01:31;;;;;;;1.50;0.30;;;22.40;36.00;;;;;;5046515;28;20029;-47
2021/04/22 04:03:56;;;;;;;1.90;0.40;;;22.40;36.00;;;;;;5053167;28;20025;-46
2021/04/22 04:06:22;;;;;;;1.48;0.20;;;22.40;36.10;;;;;;5041760;28;20018;-49
2021/04/22 04:08:48;;;;;;;1.35;0.20;;;22.40;36.10;;;;;;5060595;28;20089;-46
2021/04/22 04:11:13;;;;;;;1.10;0.30;;;22.30;36.00;;;;;;5046584;28;20035;-48
2021/04/22 04:13:39;;;;;;;1.20;0.20;;;22.30;36.00;;;;;;5052885;28;20041;-48
2021/04/22 04:16:05;;;;;;;2.70;0.30;;;22.30;36.00;;;;;;5047948;28;20033;-48
2021/04/22 04:18:30;;;;;;;1.08;0.25;;;22.30;36.00;;;;;;5048719;28;20040;-45
2021/04/22 04:20:56;;;;;;;1.02;0.10;;;22.30;36.00;;;;;;5050412;28;20040;-47
2021/04/22 04:23:22;;;;;;;1.00;0.15;;;22.30;36.00;;;;;;5048828;28;20031;-47
2021/04/22 04:25:47;;;;;;;2.28;0.40;;;22.30;36.00;;;;;;5036387;28;20027;-47
2021/04/22 04:28:13;;;;;;;0.98;0.20;;;22.30;36.00;;;;;;5053750;28;20048;-48
2021/04/22 04:30:38;;;;;;;2.25;0.20;;;22.30;36.00;;;;;;5045751;28;20493;-46
2021/04/22 04:33:04;;;;;;;1.73;0.40;;;22.30;36.00;;;;;;5067419;28;20107;-49
2021/04/22 04:35:30;;;;;;;0.75;0.17;;;22.30;36.00;;;;;;5020580;28;20035;-49
2021/04/22 04:37:56;;;;;;;2.42;0.80;;;22.30;36.00;;;;;;5048573;28;20029;-46
2021/04/22 04:40:21;;;;;;;0.88;0.30;;;22.30;36.00;;;;;;5045341;28;20107;-46
2021/04/22 04:42:47;;;;;;;1.30;0.28;;;22.20;35.90;;;;;;5049857;28;20037;-47
2021/04/22 04:45:16;;;;;;;2.70;0.30;;;22.30;36.00;;;;;;5047959;28;20037;-47
2021/04/22 04:47:41;;;;;;;2.20;0.30;;;22.20;35.90;;;;;;5050551;28;20057;-48
2021/04/22 04:50:08;;;;;;;2.08;0.20;;;22.20;35.90;;;;;;5052426;28;20525;-50
2021/04/22 04:52:35;;;;;;;1.30;0.20;;;22.20;35.90;;;;;;5053534;28;20111;-45
2021/04/22 04:55:01;;;;;;;1.98;0.20;;;22.20;36.00;;;;;;5048469;28;20107;-47
2021/04/22 04:57:27;;;;;;;0.60;0.15;;;22.20;36.00;;;;;;5052078;28;20502;-46
2021/04/22 04:59:53;;;;;;;1.45;0.10;;;22.20;36.00;;;;;;5042965;28;20059;-48
2021/04/22 05:02:19;;;;;;;3.45;0.20;;;22.20;36.00;;;;;;5051917;28;20052;-47
2021/04/22 05:04:44;;;;;;;1.20;0.30;;;22.20;35.90;;;;;;5054753;28;20501;-47
2021/04/22 05:07:10;;;;;;;1.70;0.35;;;22.20;35.90;;;;;;5048448;28;20538;-45
2021/04/22 05:09:36;;;;;;;2.35;0.47;;;22.20;35.90;;;;;;5047539;28;21149;-48
2021/04/22 05:12:02;;;;;;;1.80;0.30;;;22.20;35.90;;;;;;5040471;28;20443;-47
2021/04/22 05:14:27;;;;;;;1.52;0.10;;;22.20;36.00;;;;;;5046892;28;20033;-47
2021/04/22 05:16:53;;;;;;;1.17;0.10;;;22.20;35.90;;;;;;5050167;28;20033;-49
2021/04/22 05:19:18;;;;;;;1.52;0.22;;;22.10;35.90;;;;;;5058020;28;20083;-47
2021/04/22 05:21:44;;;;;;;1.10;0.20;;;22.10;35.90;;;;;;5046584;28;20032;-47
2021/04/22 05:24:10;;;;;;;2.78;0.20;;;22.10;35.90;;;;;;5052589;28;20051;-49
2021/04/22 05:26:35;;;;;;;1.85;0.25;;;22.20;36.00;;;;;;5048186;28;20057;-48
2021/04/22 05:29:01;;;;;;;0.80;0.35;;;22.20;36.00;;;;;;5056888;28;20028;-48
2021/04/22 05:31:27;;;;;;;0.90;0.20;;;22.10;35.90;;;;;;5046966;28;20669;-44
2021/04/22 05:33:52;;;;;;;2.88;0.20;;;22.10;35.90;;;;;;5052095;28;20055;-45
2021/04/22 05:36:18;;;;;;;1.98;0.40;;;22.10;36.00;;;;;;5036307;28;20036;-47
2021/04/22 05:38:43;;;;;;;4.40;0.20;;;22.10;35.90;;;;;;5049231;28;20039;-47
2021/04/22 05:41:09;;;;;;;1.05;0.40;;;22.10;35.90;;;;;;5048383;28;20029;-46
2021/04/22 05:43:35;;;;;;;1.00;0.28;;;22.10;35.90;;;;;;5051297;28;20044;-49
2021/04/22 05:46:00;;;;;;;2.75;0.25;;;22.10;35.90;;;;;;5051233;28;20028;-45
2021/04/22 05:48:26;;;;;;;4.38;0.30;;;22.10;36.00;;;;;;5047545;28;20026;-48
2021/04/22 05:50:51;;;;;;;1.50;0.30;;;22.10;35.90;;;;;;5052668;28;20036;-46
2021/04/22 05:53:17;;;;;;;1.88;0.38;;;22.10;35.90;;;;;;5048812;28;20060;-49
2021/04/22 05:55:43;;;;;;;4.68;0.32;;;22.10;35.90;;;;;;5053002;28;20021;-45
2021/04/22 05:58:09;;;;;;;2.78;0.43;;;22.10;35.90;;;;;;5050283;28;20513;-47
2021/04/22 06:00:35;;;;;;;0.77;0.20;;;22.10;35.90;;;;;;5042490;28;20052;-47
2021/04/22 06:03:00;;;;;;;2.38;0.40;;;22.10;35.90;;;;;;5063703;28;20536;-45
2021/04/22 06:05:26;;;;;;;1.52;0.35;;;22.10;35.90;;;;;;5050418;28;20067;-50
2021/04/22 06:07:53;;;;;;;1.80;0.35;;;22.10;36.00;;;;;;5051710;28;20079;-47
2021/04/22 06:10:19;;;;;;;0.65;0.15;;;22.10;35.70;;;;;;5041370;28;20029;-49
2021/04/22 06:12:45;;;;;;;1.23;0.28;;;22.20;35.50;;;;;;5059356;28;20037;-47
2021/04/22 06:15:11;;;;;;;1.50;0.30;;;22.30;35.60;;;;;;5036769;28;20021;-47
2021/04/22 06:17:37;;;;;;;1.55;0.20;;;22.50;35.50;;;;;;5048560;28;20117;-46
2021/04/22 06:20:09;;;;;;;1.33;0.30;;;22.60;34.90;;;;;;5050791;28;20107;-46
2021/04/22 06:22:34;;;;;;;1.63;0.35;;;22.70;34.60;;;;;;5040416;28;20057;-47
2021/04/22 06:25:00;;;;;;;1.00;0.17;;;22.80;34.70;;;;;;5050606;28;20110;-46
2021/04/22 06:27:25;;;;;;;2.80;0.20;;;22.90;34.60;;;;;;5050066;28;20079;-50
2021/04/22 06:29:51;;;;;;;1.15;0.30;;;22.90;34.60;;;;;;5052574;28;20017;-47
2021/04/22 06:32:16;;;;;;;1.55;0.30;;;23.00;34.50;;;;;;5043304;28;20037;-46
2021/04/22 06:34:42;;;;;;;1.48;0.35;;;23.00;34.30;;;;;;5072409;28;20028;-49
2021/04/22 06:37:08;;;;;;;1.98;0.30;;;23.10;34.30;;;;;;5059954;28;20029;-47
2021/04/22 06:39:33;;;;;;;0.77;0.20;;;23.10;34.10;;;;;;5056270;28;20029;-48
2021/04/22 06:41:59;;;;;;;2.10;0.35;;;23.20;34.20;;;;;;5051959;28;20492;-48
2021/04/22 06:44:24;;;;;;;0.90;0.20;;;23.20;33.90;;;;;;5050522;28;20021;-49
2021/04/22 06:46:50;;;;;;;4.13;0.55;;;23.20;34.10;;;;;;5051022;28;20029;-45
2021/04/22 06:49:16;;;;;;;3.85;0.45;;;23.20;34.10;;;;;;5049816;28;20427;-46
2021/04/22 06:51:41;;;;;;;3.08;0.40;;;23.20;34.20;;;;;;5066345;28;20040;-44
2021/04/22 06:54:07;;;;;;;3.70;0.43;;;23.20;34.30;;;;;;5056027;28;20024;-47
2021/04/22 06:56:33;;;;;;;3.20;0.20;;;23.20;34.40;;;;;;5062183;28;20031;-47
2021/04/22 06:59:03;;;;;;;3.95;0.50;;;23.20;34.50;;;;;;5049308;28;20047;-46
2021/04/22 07:01:28;;;;;;;3.08;0.35;;;23.20;34.50;;;;;;5038294;28;20036;-46
2021/04/22 07:03:54;;;;;;;1.92;0.25;;;23.20;34.50;;;;;;5049005;28;20094;-53
2021/04/22 07:06:20;;;;;;;2.33;0.40;;;23.20;34.50;;;;;;5056712;28;20024;-49
2021/04/22 07:08:45;;;;;;;2.33;0.28;;;23.20;34.50;;;;;;5044664;28;20440;-47
2021/04/22 07:11:11;;;;;;;0.95;0.30;;;23.20;34.50;;;;;;5048820;28;20104;-47
2021/04/22 07:13:36;;;;;;;1.30;0.40;;;23.20;34.60;;;;;;5044757;28;20064;-50
2021/04/22 07:16:02;;;;;;;1.13;0.22;;;23.10;34.60;;;;;;5049223;28;20025;-45
2021/04/22 07:18:28;;;;;;;1.35;0.10;;;23.10;34.60;;;;;;5038036;28;20028;-44
2021/04/22 07:20:54;;;;;;;2.00;0.38;;;23.10;34.70;;;;;;5043994;28;20557;-45
2021/04/22 07:23:19;;;;;;;2.47;0.40;;;23.10;34.70;;;;;;5040028;28;20099;-44
2021/04/22 07:25:45;;;;;;;1.08;0.32;;;23.00;34.80;;;;;;5048932;28;20374;-49
2021/04/22 07:28:12;;;;;;;0.80;0.30;;;23.00;34.80;;;;;;5045410;28;20511;-48
2021/04/22 07:30:39;;;;;;;1.15;0.40;;;23.00;34.80;;;;;;5041315;28;20120;-47
2021/04/22 07:33:05;;;;;;;2.67;0.20;;;23.00;34.90;;;;;;5044579;28;20025;-51
2021/04/22 07:35:31;;;;;;;1.67;0.43;;;23.00;34.90;;;;;;5045734;28;20033;-49
2021/04/22 07:37:57;;;;;;;2.05;0.47;;;23.00;34.90;;;;;;5045398;28;20094;-48
2021/04/22 07:40:26;;;;;;;1.55;0.22;;;23.10;34.80;;;;;;5045461;28;20094;-43
2021/04/22 07:42:52;;;;;;;1.27;0.30;;;23.10;34.90;;;;;;5046730;28;20025;-43
2021/04/22 07:45:21;;;;;;;1.13;0.47;;;23.10;35.10;;;;;;5045471;28;20028;-43
2021/04/22 07:47:47;;;;;;;4.05;0.50;;;23.10;35.10;;;;;;5048933;28;20073;-51
2021/04/22 07:50:14;;;;;;;1.95;0.40;;;23.10;35.20;;;;;;5048804;28;20051;-44
2021/04/22 07:52:40;;;;;;;2.20;0.30;;;23.10;35.20;;;;;;5049858;28;20040;-45
2021/04/22 07:55:08;;;;;;;4.32;0.40;;;23.20;35.20;;;;;;5050044;28;20029;-45
2021/04/22 07:57:35;;;;;;;1.98;0.32;;;23.20;35.30;;;;;;5060301;28;20037;-41
2021/04/22 08:00:03;;;;;;;3.63;0.47;;;23.10;35.80;;;;;;5053467;28;20043;-47
2021/04/22 08:02:29;;;;;;;1.98;0.40;;;23.20;35.30;;;;;;5048121;28;20028;-49
2021/04/22 08:04:55;;;;;;;3.15;0.40;;;23.20;35.30;;;;;;5046823;28;20029;-48
2021/04/22 08:07:20;;;;;;;2.42;0.47;;;23.10;35.10;;;;;;5047635;28;20025;-47
2021/04/22 08:09:46;;;;;;;1.92;0.50;;;23.10;35.50;;;;;;5041956;28;20033;-47
2021/04/22 08:12:11;;;;;;;3.15;0.38;;;23.10;35.50;;;;;;5043296;28;20052;-47
2021/04/22 08:14:37;;;;;;;6.32;0.40;;;23.10;35.50;;;;;;5040250;28;20490;-47
2021/04/22 08:17:03;;;;;;;2.97;0.93;;;23.20;35.60;;;;;;5043346;28;20029;-46
2021/04/22 08:19:29;;;;;;;2.13;0.70;;;23.20;35.80;;;;;;5045357;28;20040;-45
2021/04/22 08:21:54;;;;;;;1.83;0.73;;;23.20;35.80;;;;;;5047014;28;20104;-44
2021/04/22 08:24:20;;;;;;;2.03;0.68;;;23.20;35.80;;;;;;5030417;28;20104;-48
2021/04/22 08:26:45;;;;;;;4.13;1.33;;;23.20;35.70;;;;;;5043500;28;20037;-46
2021/04/22 08:29:11;;;;;;;2.35;0.65;;;23.20;35.70;;;;;;5047741;28;20052;-47
2021/04/22 08:31:37;;;;;;;2.80;0.75;;;23.30;36.00;;;;;;5042601;28;20029;-52
2021/04/22 08:34:07;;;;;;;3.60;0.88;;;23.30;36.00;;;;;;5043232;28;20028;-45
2021/04/22 08:36:35;;;;;;;5.50;0.90;;;23.30;36.00;;;;;;5038718;28;20112;-45
2021/04/22 08:39:03;;;;;;;4.80;0.60;;;23.20;36.00;;;;;;5039888;28;20456;-48
2021/04/22 08:41:28;;;;;;;3.50;0.80;;;23.20;36.10;;;;;;5032310;28;20095;-45
2021/04/22 08:43:54;;;;;;;2.70;0.80;;;23.20;36.10;;;;;;5048382;28;20057;-49
2021/04/22 08:46:23;;;;;;;4.03;0.70;;;23.20;36.10;;;;;;5044306;28;20040;-47
2021/04/22 08:48:49;;;;;;;4.30;1.13;;;23.20;36.10;;;;;;5045825;28;20490;-51
2021/04/22 08:51:15;;;;;;;1.70;0.82;;;23.20;36.10;;;;;;5038672;28;20037;-47
2021/04/22 08:53:45;;;;;;;2.00;0.77;;;23.20;36.20;;;;;;5038994;28;20047;-48
2021/04/22 08:56:12;;;;;;;2.85;1.45;;;23.20;36.20;;;;;;5040477;28;20032;-45
2021/04/22 08:58:37;;;;;;;2.53;1.10;;;23.20;36.10;;;;;;5034875;28;20040;-47
2021/04/22 09:01:11;;;;;;;2.45;1.20;;;23.20;36.10;;;;;;5033848;28;20033;-44
2021/04/22 09:03:38;;;;;;;3.53;1.13;;;23.20;36.00;;;;;;5041150;28;20037;-49
2021/04/22 09:06:04;;;;;;;3.42;0.98;;;23.20;36.20;;;;;;5032206;28;20017;-45
2021/04/22 09:08:46;;;;;;;1.70;0.85;;;23.30;36.20;;;;;;5042779;28;20052;-46
2021/04/22 09:11:14;;;;;;;4.07;1.05;;;23.30;36.30;;;;;;5044113;28;20044;-49
2021/04/22 09:13:40;;;;;;;4.30;0.90;;;23.40;36.50;;;;;;5041939;28;20037;-47
2021/04/22 09:16:09;;;;;;;3.42;1.00;;;23.40;36.60;;;;;;5032076;28;20025;-43
2021/04/22 09:18:46;;;;;;;2.92;0.98;;;23.40;36.50;;;;;;5040481;28;20535;-47
2021/04/22 09:21:21;;;;;;;3.15;1.40;;;23.40;36.80;;;;;;5046927;28;20040;-50
2021/04/22 09:23:57;;;;;;;2.72;0.80;;;23.40;36.30;;;;;;5046618;28;20033;-46
2021/04/22 09:26:35;;;;;;;1.58;0.63;;;23.40;36.60;;;;;;5038630;28;20033;-44
2021/04/22 09:29:00;;;;;;;1.20;0.60;;;23.50;37.10;;;;;;5043556;28;20031;-41
2021/04/22 09:31:27;;;;;;;7.43;1.58;;;23.40;37.10;;;;;;5044765;28;20401;-45
2021/04/22 09:34:11;;;;;;;2.40;0.73;;;23.40;36.90;;;;;;5046837;28;20574;-45
2021/04/22 09:36:45;;;;;;;3.08;0.68;;;23.40;36.70;;;;;;5042533;28;20057;-52
2021/04/22 09:39:13;;;;;;;1.77;0.98;;;23.40;36.40;;;;;;5045223;28;20465;-52
2021/04/22 09:41:38;;;;;;;2.92;0.75;;;23.40;36.00;;;;;;5043420;28;20144;-50
2021/04/22 09:44:12;;;;;;;1.30;0.75;;;23.40;35.90;;;;;;5047840;28;20108;-52
2021/04/22 09:46:44;;;;;;;3.25;1.08;;;23.40;35.90;;;;;;5041685;28;20465;-52
2021/04/22 09:49:11;;;;;;;;;;;23.50;37.40;;;;;;5041723;28;20021;-47
2021/04/22 09:51:38;;;;;;;2.22;1.05;;;23.60;36.60;;;;;;5029466;28;19944;-45
2021/04/22 09:54:08;;;;;;;2.35;1.05;;;23.60;37.10;;;;;;5046142;28;20818;-45
2021/04/22 09:56:53;;;;;;;2.45;0.73;;;23.60;38.30;;;;;;5044725;28;20028;-45
2021/04/22 09:59:22;;;;;;;2.40;1.17;;;23.60;38.30;;;;;;5038956;28;20086;-46
2021/04/22 10:02:01;;;;;;;1.60;0.90;;;23.60;37.30;;;;;;5037431;28;20111;-44
2021/04/22 10:04:45;;;;;;;1.52;0.70;;;23.70;37.10;;;;;;5044410;28;20057;-41
2021/04/22 10:07:40;;;;;;;2.30;0.85;;;23.70;38.30;;;;;;5042174;28;20120;-52
2021/04/22 10:10:22;;;;;;;1.80;0.63;;;23.70;38.50;;;;;;5046521;28;20064;-46
2021/04/22 10:12:48;;;;;;;2.25;1.10;;;23.80;37.20;;;;;;5045775;28;20033;-44
2021/04/22 10:15:22;;;;;;;2.15;1.30;;;23.80;36.80;;;;;;5041549;28;20040;-47
2021/04/22 10:18:00;;;;;;;1.38;0.90;;;23.70;37.80;;;;;;5040153;28;20036;-47
2021/04/22 10:20:28;;;;;;;2.38;0.90;;;23.80;37.60;;;;;;5046764;28;20032;-48
2021/04/22 10:22:54;;;;;;;2.58;1.20;;;23.80;37.80;;;;;;5044641;28;20040;-45
2021/04/22 10:25:26;;;;;;;2.60;1.65;;;23.80;37.20;;;;;;5041280;28;20017;-45
2021/04/22 10:27:52;;;;;;;;;;;23.80;39.00;;;;;;5041126;28;20636;-46
2021/04/22 10:30:23;;;;;;;1.75;0.88;;;23.80;38.30;;;;;;5045337;28;19912;-44
2021/04/22 10:32:50;;;;;;;2.03;1.30;;;23.80;38.80;;;;;;5039618;28;20453;-41
2021/04/22 10:35:21;;;;;;;5.70;1.63;;;23.80;37.50;;;;;;5044806;28;20482;-44
2021/04/22 10:37:50;;;;;;;2.97;1.42;;;23.90;37.50;;;;;;5041438;28;20029;-41
2021/04/22 10:40:19;;;;;;;3.25;1.10;;;23.80;37.70;;;;;;5051931;28;20118;-46
2021/04/22 10:42:45;;;;;;;3.75;1.75;;;23.90;39.10;;;;;;5049736;28;20064;-46
2021/04/22 10:45:15;;;;;;;2.13;1.02;;;23.80;37.10;;;;;;5044840;28;20036;-48
2021/04/22 10:47:42;;;;;;;1.83;1.38;;;23.80;37.10;;;;;;5036878;28;20048;-42
2021/04/22 10:50:16;;;;;;;2.20;1.02;;;23.90;38.60;;;;;;5049485;28;20529;-46
2021/04/22 10:52:48;;;;;;;2.33;1.08;;;23.90;37.20;;;;;;5047541;28;20127;-42
2021/04/22 10:55:17;;;;;;;2.95;1.58;;;23.90;37.30;;;;;;5045761;28;20062;-42
2021/04/22 10:57:44;;;;;;;1.83;1.17;;;24.00;37.20;;;;;;5046312;28;20025;-44
2021/04/22 11:00:12;;;;;;;2.58;1.25;;;24.00;37.40;;;;;;5042293;28;20111;-42
2021/04/22 11:02:53;;;;;;;1.88;1.10;;;24.00;37.20;;;;;;5046714;28;20036;-45
2021/04/22 11:05:21;;;;;;;3.97;1.15;;;24.00;37.40;;;;;;5047572;28;20498;-46
2021/04/22 11:08:04;;;;;;;3.35;1.27;;;24.00;37.90;;;;;;5048850;28;20101;-47
2021/04/22 11:10:38;;;;;;;1.80;1.13;;;24.00;39.40;;;;;;5048229;28;20186;-50
2021/04/22 11:13:08;;;;;;;2.53;1.20;;;23.90;39.10;;;;;;5046008;28;20673;-47
2021/04/22 11:15:34;;;;;;;4.03;1.58;;;24.00;38.30;;;;;;5045958;28;20089;-46
2021/04/22 11:18:12;;;;;;;2.42;1.10;;;24.00;37.80;;;;;;5048615;28;20025;-43
2021/04/22 11:20:41;;;;;;;1.45;1.17;;;24.00;39.30;;;;;;5044036;28;20083;-44
2021/04/22 11:23:17;;;;;;;6.43;1.42;;;24.00;39.70;;;;;;5050776;28;20493;-45
2021/04/22 11:26:01;;;;;;;2.08;1.20;;;24.00;40.00;;;;;;5048201;28;20028;-42
2021/04/22 11:28:34;;;;;;;4.18;1.25;;;24.00;40.10;;;;;;5044091;28;20025;-44
2021/04/22 11:31:11;;;;;;;3.90;1.00;;;24.00;40.10;;;;;;5045620;28;20035;-44
2021/04/22 11:33:38;;;;;;;1.65;1.13;;;24.00;40.10;;;;;;5048067;28;20729;-41
2021/04/22 11:36:30;;;;;;;2.45;1.27;;;24.00;40.20;;;;;;5041597;28;20052;-46
2021/04/22 11:39:03;;;;;;;1.60;1.00;;;24.10;40.30;;;;;;5041872;28;20087;-45
2021/04/22 11:41:31;;;;;;;1.95;1.23;;;24.10;40.30;;;;;;5047398;28;20037;-46
2021/04/22 11:44:15;;;;;;;2.95;1.33;;;24.10;40.30;;;;;;5047673;28;20028;-44
2021/04/22 11:46:43;;;;;;;1.52;0.75;;;24.10;40.10;;;;;;5044024;28;20033;-44
2021/04/22 11:49:24;;;;;;;1.75;1.05;;;24.10;40.50;;;;;;5049164;28;20413;-46
2021/04/22 11:51:50;;;;;;;3.92;1.00;;;24.20;40.00;;;;;;5048635;28;20036;-46
2021/04/22 11:54:28;;;;;;;1.92;0.73;;;24.10;39.90;;;;;;5049239;28;20028;-45
2021/04/22 11:57:03;;;;;;;1.95;0.88;;;24.10;39.60;;;;;;5049490;28;20158;-46
2021/04/22 11:59:30;;;;;;;1.63;1.02;;;24.10;39.40;;;;;;5053691;28;20438;-45
2021/04/22 12:02:06;;;;;;;1.98;0.50;;;24.10;39.20;;;;;;5048970;28;20513;-46
2021/04/22 12:04:43;;;;;;;1.10;0.52;;;24.10;38.90;;;;;;5042646;28;20061;-45
2021/04/22 12:07:15;;;;;;;1.55;1.08;;;24.10;38.80;;;;;;5048826;28;20075;-45
2021/04/22 12:09:43;;;;;;;2.25;0.68;;;24.10;38.70;;;;;;5055619;28;20035;-45
2021/04/22 12:12:26;;;;;;;1.92;0.80;;;24.10;38.60;;;;;;5049284;28;20033;-46
2021/04/22 12:14:58;;;;;;;1.77;0.70;;;24.10;38.50;;;;;;5034437;28;20047;-46
2021/04/22 12:17:28;;;;;;;;;;;24.10;38.40;;;;;;5046351;28;20040;-45
2021/04/22 12:19:57;;;;;;;2.38;0.90;;;24.10;38.30;;;;;;5045378;28;20273;-45
2021/04/22 12:22:28;;;;;;;1.70;0.60;;;24.10;38.30;;;;;;5048232;28;20498;-47
2021/04/22 12:24:53;;;;;;;1.35;0.57;;;24.10;38.20;;;;;;5050496;28;20029;-44
2021/04/22 12:27:30;;;;;;;1.92;0.75;;;24.10;38.10;;;;;;5053511;28;20028;-45
2021/04/22 12:29:56;;;;;;;1.25;0.43;;;24.20;38.90;;;;;;5047956;28;20033;-46
2021/04/22 12:32:21;;;;;;;1.17;0.60;;;24.20;39.60;;;;;;5048162;28;20032;-46
2021/04/22 12:34:47;;;;;;;1.33;0.55;;;24.20;40.30;;;;;;5031795;28;20037;-46
2021/04/22 12:37:13;;;;;;;1.90;0.88;;;24.20;40.80;;;;;;5044563;28;20040;-43
2021/04/22 12:39:54;;;;;;;2.25;0.60;;;24.30;41.00;;;;;;5042643;28;20029;-45
2021/04/22 12:42:25;;;;;;;2.17;0.50;;;24.30;40.90;;;;;;5047049;28;20067;-47
2021/04/22 12:45:00;;;;;;;1.88;0.85;;;24.30;40.60;;;;;;5046529;28;20032;-45
2021/04/22 12:47:56;;;;;;;1.55;0.40;;;24.30;40.80;;;;;;5031068;28;20021;-46
2021/04/22 12:50:25;;;;;;;1.77;0.50;;;24.30;38.30;;;;;;5040120;28;20037;-47
2021/04/22 12:53:23;;;;;;;1.60;0.60;;;24.30;40.60;;;;;;5047598;28;20079;-44